Time;durP1;ratioP1;P1;durP2;ratioP2;P2;SDS_P1;SDS_P2;PMS_P1;PMS_P2;Temp;Humidity;BMP_temperature;BMP_pressure;BME280_temperature;BME280_humidity;BME280_pressure;Samples;Min_cycle;Max_cycle;Signal;HPM_P1;HPM_P2
2022/09/06 00:00:30;;;;;;;2.20;1.23;;;;;;;20.66;58.40;101612.53;5193698;28;20582;-37
2022/09/06 00:03:03;;;;;;;4.18;1.85;;;;;;;20.80;58.09;101636.75;5204285;28;20040;-42
2022/09/06 00:05:38;;;;;;;3.90;1.60;;;;;;;20.78;58.03;101628.06;5176879;28;20037;-39
2022/09/06 00:08:10;;;;;;;3.38;1.45;;;;;;;20.83;57.82;101631.81;5170826;28;20122;-45
2022/09/06 00:10:43;;;;;;;3.15;1.55;;;;;;;20.82;59.09;101629.34;5178193;28;20477;-46
2022/09/06 00:13:15;;;;;;;6.65;3.40;;;;;;;20.63;59.36;101626.34;5180606;28;20431;-46
2022/09/06 00:15:48;;;;;;;10.15;4.82;;;;;;;20.34;61.28;101615.78;5190485;28;20128;-47
2022/09/06 00:22:08;;;;;;;5.30;3.10;;;;;;;20.26;61.31;101673.09;5190593;28;20075;-39
2022/09/06 00:24:40;;;;;;;8.38;3.63;;;;;;;20.18;60.67;101654.44;5171848;28;20448;-43
2022/09/06 00:27:13;;;;;;;6.03;2.92;;;;;;;20.31;60.53;101667.97;5178171;28;20052;-41
2022/09/06 00:29:45;;;;;;;6.40;3.30;;;;;;;20.28;60.25;101654.94;5176646;28;20436;-42
2022/09/06 00:32:18;;;;;;;10.32;4.72;;;;;;;20.33;60.03;101655.19;5179321;28;20326;-42
2022/09/06 00:34:50;;;;;;;7.60;5.10;;;;;;;20.36;59.90;101651.31;5180327;28;20053;-41
2022/09/06 00:37:24;;;;;;;14.23;5.75;;;;;;;20.29;59.80;101645.91;5174034;28;20045;-43
2022/09/06 00:39:57;;;;;;;14.43;5.28;;;;;;;20.33;59.70;101646.31;5175939;28;20060;-40
2022/09/06 00:42:29;;;;;;;11.07;6.03;;;;;;;20.21;60.56;101627.25;5177185;28;20049;-44
2022/09/06 00:45:02;;;;;;;10.85;6.10;;;;;;;20.22;61.49;101635.13;5180318;28;20114;-42
2022/09/06 00:47:36;;;;;;;9.52;6.93;;;;;;;20.13;63.08;101635.41;5176337;28;20045;-32
2022/09/06 00:50:12;;;;;;;13.05;8.15;;;;;;;20.02;64.05;101639.47;5178498;28;20120;-47
2022/09/06 00:52:49;;;;;;;13.93;7.63;;;;;;;19.96;64.19;101635.69;5176753;28;20045;-43
2022/09/06 00:55:23;;;;;;;15.57;8.40;;;;;;;20.06;63.77;101638.06;5178433;28;20052;-47
2022/09/06 00:57:56;;;;;;;21.77;8.38;;;;;;;20.02;63.45;101620.69;5176840;28;20130;-44
2022/09/06 01:00:29;;;;;;;20.25;7.85;;;;;;;20.13;64.63;101622.88;5175903;28;20386;-46
2022/09/06 01:03:02;;;;;;;10.52;7.32;;;;;;;20.02;64.98;101616.16;5184153;28;20374;-42
2022/09/06 01:05:46;;;;;;;18.90;8.35;;;;;;;20.13;64.44;101638.09;5195900;28;20092;-42
2022/09/06 01:08:31;;;;;;;11.88;7.13;;;;;;;20.18;63.80;101644.56;5196989;28;20186;-40
2022/09/06 01:11:39;;;;;;;12.35;7.20;;;;;;;20.22;63.14;101645.84;5199782;28;20052;-41
2022/09/06 01:14:22;;;;;;;12.32;7.28;;;;;;;20.23;62.66;101641.31;5193342;28;20136;-43
2022/09/06 01:17:03;;;;;;;14.90;7.65;;;;;;;20.19;62.12;101648.06;5200360;28;20068;-46
2022/09/06 01:20:17;;;;;;;10.63;6.88;;;;;;;20.32;61.66;101663.47;5195883;28;20052;-41
2022/09/06 01:23:39;;;;;;;15.95;8.02;;;;;;;20.30;61.37;101679.72;5197812;28;20055;-45
2022/09/06 01:26:59;;;;;;;14.30;8.27;;;;;;;20.35;60.98;101679.16;5191269;28;20420;-48
2022/09/06 01:29:38;;;;;;;13.25;8.80;;;;;;;20.33;61.34;101651.69;5203943;28;20131;-42
2022/09/06 01:32:17;;;;;;;14.23;9.10;;;;;;;20.38;61.18;101657.31;5199156;28;20041;-41
2022/09/06 01:34:57;;;;;;;17.33;9.15;;;;;;;20.44;60.92;101648.47;5192757;28;20454;-42
2022/09/06 01:37:30;;;;;;;16.33;10.15;;;;;;;20.44;61.07;101633.22;5197623;28;20431;-43
2022/09/06 01:40:03;;;;;;;12.88;8.73;;;;;;;20.40;61.30;101633.78;5205065;28;20044;-42
2022/09/06 01:42:37;;;;;;;11.55;7.43;;;;;;;20.34;61.28;101626.50;5184270;28;20477;-42
2022/09/06 01:45:15;;;;;;;13.13;7.68;;;;;;;20.33;61.00;101608.78;5194988;28;20048;-53
2022/09/06 01:48:02;;;;;;;13.30;7.60;;;;;;;20.44;60.89;101618.94;5190047;28;20056;-42
2022/09/06 01:51:27;;;;;;;14.30;8.13;;;;;;;20.47;60.94;101615.88;5196609;28;20443;-34
2022/09/06 01:54:25;;;;;;;13.07;8.50;;;;;;;20.50;60.77;101626.22;5179796;28;20386;-40
2022/09/06 01:57:13;;;;;;;12.82;8.35;;;;;;;20.50;60.76;101615.47;5190580;28;20416;-43
2022/09/06 02:00:03;;;;;;;14.68;8.07;;;;;;;20.48;60.45;101612.19;5193952;28;20435;-40
2022/09/06 02:02:48;;;;;;;11.85;7.53;;;;;;;20.51;60.50;101595.69;5197866;28;20524;-36
2022/09/06 02:05:28;;;;;;;16.25;9.15;;;;;;;20.54;60.43;101594.50;5186058;28;20094;-38
2022/09/06 02:08:08;;;;;;;11.40;7.75;;;;;;;20.46;60.95;101590.06;5199787;28;20068;-44
2022/09/06 02:10:45;;;;;;;16.58;8.82;;;;;;;20.31;61.10;101574.06;5192454;28;20115;-44
2022/09/06 02:13:19;;;;;;;10.57;8.55;;;;;;;20.21;61.04;101570.91;5199040;28;20122;-45
2022/09/06 02:15:56;;;;;;;17.38;8.90;;;;;;;20.27;61.12;101581.69;5203490;28;20059;-40
2022/09/06 02:18:36;;;;;;;16.90;9.95;;;;;;;20.18;60.96;101568.63;5190814;28;20044;-46
2022/09/06 02:21:11;;;;;;;13.73;9.40;;;;;;;20.27;61.03;101564.78;5195968;28;20536;-41
2022/09/06 02:23:46;;;;;;;17.05;9.27;;;;;;;20.20;61.03;101545.13;5192358;28;20536;-43
2022/09/06 02:26:21;;;;;;;16.23;9.00;;;;;;;20.21;60.67;101546.78;5184257;28;20523;-40
2022/09/06 02:28:54;;;;;;;17.65;11.05;;;;;;;20.15;63.18;101548.38;5201593;28;20495;-38
2022/09/06 02:31:29;;;;;;;;;;;;;;;20.08;63.89;101558.25;5202176;28;20052;-48
2022/09/06 02:34:04;;;;;;;15.35;10.25;;;;;;;19.99;64.05;101559.41;5199869;28;19924;-41
2022/09/06 02:36:37;;;;;;;15.65;10.20;;;;;;;19.95;64.11;101566.19;5195639;28;20043;-44
2022/09/06 02:39:10;;;;;;;16.30;10.70;;;;;;;19.94;63.50;101561.84;5200150;28;20404;-41
2022/09/06 02:41:44;;;;;;;;;;;;;;;20.04;63.33;101568.53;5201228;28;20456;-42
2022/09/06 02:44:16;;;;;;;19.65;13.25;;;;;;;19.99;64.20;101565.59;5197357;28;19990;-44
2022/09/06 02:46:49;;;;;;;18.25;9.80;;;;;;;19.92;64.14;101570.09;5190773;28;20064;-41
2022/09/06 02:49:23;;;;;;;26.45;12.45;;;;;;;19.89;63.71;101570.47;5193775;28;20211;-41
2022/09/06 02:51:55;;;;;;;20.90;10.75;;;;;;;19.86;63.65;101562.00;5204169;28;21181;-40
2022/09/06 02:54:28;;;;;;;15.55;10.23;;;;;;;19.94;63.24;101572.56;5202504;28;20423;-44
2022/09/06 02:57:00;;;;;;;18.20;10.90;;;;;;;19.94;63.16;101569.88;5199794;28;20044;-43
2022/09/06 02:59:33;;;;;;;23.02;13.00;;;;;;;19.98;63.09;101566.63;5198170;28;20458;-44
2022/09/06 03:02:06;;;;;;;21.48;11.05;;;;;;;19.99;63.49;101578.19;5194090;28;20528;-47
2022/09/06 03:05:20;;;;;;;21.27;11.98;;;;;;;20.00;63.26;101561.06;5199962;28;20413;-44
2022/09/06 03:07:53;;;;;;;19.48;11.88;;;;;;;19.94;63.05;101553.78;5189193;28;20053;-35
2022/09/06 03:10:26;;;;;;;23.30;12.90;;;;;;;19.99;62.90;101554.06;5191513;28;21236;-43
2022/09/06 03:12:59;;;;;;;15.30;11.55;;;;;;;19.96;63.06;101549.09;5195444;28;20048;-42
2022/09/06 03:15:31;;;;;;;19.20;12.73;;;;;;;19.93;63.03;101549.47;5183236;28;20048;-42
2022/09/06 03:18:22;;;;;;;19.00;11.73;;;;;;;19.87;63.07;101544.88;5192800;28;20606;-43
2022/09/06 03:20:57;;;;;;;23.85;12.23;;;;;;;19.90;62.91;101547.19;5182495;28;20487;-39
2022/09/06 03:23:30;;;;;;;15.52;12.20;;;;;;;19.91;62.83;101556.88;5187438;28;20052;-42
2022/09/06 03:26:02;;;;;;;26.58;13.52;;;;;;;19.94;62.66;101561.84;5191059;28;20117;-44
2022/09/06 03:28:35;;;;;;;16.23;9.95;;;;;;;19.93;62.76;101565.56;5190390;28;20488;-48
2022/09/06 03:31:08;;;;;;;17.45;11.52;;;;;;;19.95;62.39;101564.34;5183633;28;20049;-42
2022/09/06 03:33:40;;;;;;;13.75;11.70;;;;;;;19.96;62.37;101565.16;5193917;28;20048;-42
2022/09/06 03:36:14;;;;;;;20.58;11.93;;;;;;;19.91;62.19;101556.88;5190113;28;20505;-43
2022/09/06 03:38:47;;;;;;;17.90;11.57;;;;;;;19.95;61.88;101564.34;5194070;28;20408;-42
2022/09/06 03:41:20;;;;;;;21.23;11.65;;;;;;;20.04;62.08;101571.22;5195630;28;20408;-41
2022/09/06 03:43:52;;;;;;;14.70;11.02;;;;;;;20.02;62.03;101562.53;5193361;28;20299;-42
2022/09/06 03:46:25;;;;;;;14.05;9.27;;;;;;;20.05;61.78;101564.00;5195221;28;20045;-43
2022/09/06 03:48:58;;;;;;;18.48;11.13;;;;;;;20.03;61.51;101560.69;5183448;28;20068;-43
2022/09/06 03:51:31;;;;;;;15.93;10.73;;;;;;;20.08;61.72;101568.97;5177817;28;20385;-42
2022/09/06 03:54:04;;;;;;;18.35;10.40;;;;;;;20.08;61.51;101571.66;5191211;28;20040;-42
2022/09/06 03:56:37;;;;;;;14.40;10.75;;;;;;;20.03;61.51;101566.84;5188830;28;20137;-46
2022/09/06 03:59:09;;;;;;;14.98;9.57;;;;;;;20.01;61.48;101563.56;5194632;28;20044;-43
2022/09/06 04:01:42;;;;;;;12.10;9.30;;;;;;;20.02;61.46;101564.38;5196153;28;20131;-43
2022/09/06 04:04:15;;;;;;;15.25;9.73;;;;;;;20.06;61.20;101565.66;5189553;28;20431;-42
2022/09/06 04:06:49;;;;;;;14.80;10.65;;;;;;;20.13;61.54;101579.97;5204127;28;20049;-43
2022/09/06 04:09:22;;;;;;;15.93;9.00;;;;;;;20.06;61.23;101570.19;5195434;28;20128;-43
2022/09/06 04:11:54;;;;;;;;;;;;;;;20.18;61.38;101585.53;5197579;28;20044;-41
2022/09/06 04:14:27;;;;;;;16.73;9.00;;;;;;;20.19;61.05;101587.22;5196549;28;20293;-42
2022/09/06 04:16:59;;;;;;;16.25;11.32;;;;;;;20.12;61.04;101572.91;5197342;28;20041;-44
2022/09/06 04:19:33;;;;;;;17.38;11.02;;;;;;;20.20;61.06;101583.50;5195482;28;20557;-42
2022/09/06 04:22:07;;;;;;;20.48;10.85;;;;;;;20.14;60.71;101588.81;5205856;28;20480;-39
2022/09/06 04:24:39;;;;;;;12.43;9.85;;;;;;;20.11;60.71;101598.09;5202253;28;20064;-40
2022/09/06 04:27:12;;;;;;;18.23;10.63;;;;;;;20.15;60.73;101602.03;5201857;28;20101;-39
2022/09/06 04:29:44;;;;;;;16.65;11.45;;;;;;;20.08;60.72;101579.69;5198684;28;20413;-41
2022/09/06 04:32:17;;;;;;;20.13;9.35;;;;;;;20.10;60.95;101591.06;5203048;28;20125;-44
2022/09/06 04:34:49;;;;;;;12.88;9.55;;;;;;;20.11;60.78;101616.84;5201664;28;20413;-42
2022/09/06 04:37:24;;;;;;;18.92;11.75;;;;;;;20.11;60.66;101635.63;5200163;28;20048;-45
2022/09/06 04:39:56;;;;;;;24.48;10.77;;;;;;;20.05;61.03;101620.31;5184574;28;20501;-44
2022/09/06 04:42:29;;;;;;;22.30;10.80;;;;;;;19.97;60.84;101621.25;5191973;28;20040;-43
2022/09/06 04:45:01;;;;;;;19.60;11.50;;;;;;;19.93;60.90;101616.50;5197826;28;20052;-41
2022/09/06 04:47:34;;;;;;;19.48;12.45;;;;;;;19.98;60.90;101630.97;5201373;28;20231;-42
2022/09/06 04:50:08;;;;;;;28.20;13.43;;;;;;;20.02;60.92;101642.16;5194727;28;20040;-40
2022/09/06 04:52:42;;;;;;;20.63;13.07;;;;;;;20.02;60.96;101634.94;5201295;28;20496;-39
2022/09/06 04:55:15;;;;;;;18.27;11.27;;;;;;;20.04;60.87;101632.06;5202950;28;20511;-42
2022/09/06 04:57:47;;;;;;;15.23;10.88;;;;;;;20.02;60.78;101623.38;5203538;28;20044;-40
2022/09/06 05:00:20;;;;;;;22.73;12.32;;;;;;;19.96;60.82;101603.53;5201576;28;20435;-42
2022/09/06 05:02:52;;;;;;;16.02;11.10;;;;;;;20.06;60.82;101608.56;5203095;28;20477;-41
2022/09/06 05:05:25;;;;;;;16.55;11.05;;;;;;;20.05;60.64;101606.91;5206181;28;20431;-41
2022/09/06 05:07:59;;;;;;;19.60;12.20;;;;;;;19.98;60.74;101584.56;5205297;28;20381;-43
2022/09/06 05:10:32;;;;;;;17.23;11.82;;;;;;;19.98;60.70;101589.94;5205662;28;20400;-44
2022/09/06 05:13:04;;;;;;;14.13;10.70;;;;;;;19.97;60.77;101599.81;5202980;28;20044;-43
2022/09/06 05:15:37;;;;;;;17.50;12.05;;;;;;;20.04;60.73;101621.34;5202772;28;20049;-43
2022/09/06 05:18:09;;;;;;;23.88;12.73;;;;;;;19.96;60.67;101592.81;5198667;28;20117;-47
2022/09/06 05:20:42;;;;;;;23.58;13.23;;;;;;;20.06;60.94;101597.81;5202495;28;20504;-40
2022/09/06 05:23:16;;;;;;;19.40;12.68;;;;;;;20.06;61.00;101605.03;5201848;28;20334;-40
2022/09/06 05:25:49;;;;;;;23.92;13.77;;;;;;;20.02;60.95;101583.16;5202112;28;20049;-40
2022/09/06 05:28:22;;;;;;;22.70;10.23;;;;;;;20.01;60.78;101589.56;5202773;28;20036;-40
2022/09/06 05:31:04;;;;;;;16.40;9.77;;;;;;;19.98;61.00;101577.38;5199604;28;20560;-43
2022/09/06 05:33:37;;;;;;;15.95;9.90;;;;;;;20.06;60.89;101584.41;5197738;28;20515;-37
2022/09/06 05:36:10;;;;;;;16.60;10.07;;;;;;;20.08;60.84;101568.97;5207236;28;20374;-39
2022/09/06 05:38:44;;;;;;;18.48;9.82;;;;;;;20.17;61.06;101575.84;5200960;28;20133;-43
2022/09/06 05:41:17;;;;;;;20.50;11.30;;;;;;;20.21;61.11;101563.69;5203519;28;20052;-39
2022/09/06 05:43:49;;;;;;;16.75;10.50;;;;;;;20.18;61.08;101547.19;5206943;28;20122;-45
2022/09/06 05:46:22;;;;;;;16.73;9.60;;;;;;;20.19;60.81;101547.00;5201288;28;20461;-43
2022/09/06 05:48:58;;;;;;;14.75;10.48;;;;;;;20.16;61.13;101544.69;5197702;28;20119;-42
2022/09/06 05:51:31;;;;;;;17.67;10.32;;;;;;;20.17;61.16;101541.00;5199185;28;20500;-45
2022/09/06 05:54:05;;;;;;;;;;;;;;;20.26;61.11;101555.91;5203314;28;20068;-42
2022/09/06 05:56:38;;;;;;;15.98;11.80;;;;;;;20.23;61.32;101556.28;5197334;28;19920;-43
2022/09/06 05:59:10;;;;;;;20.40;10.63;;;;;;;20.38;61.22;101558.06;5198992;28;20489;-39
2022/09/06 06:01:49;;;;;;;16.67;10.48;;;;;;;20.53;60.85;101561.44;5208911;28;20505;-39
2022/09/06 06:04:22;;;;;;;27.23;10.13;;;;;;;20.70;60.82;101560.09;5206182;28;20044;-39
2022/09/06 06:06:54;;;;;;;15.73;10.05;;;;;;;20.93;60.47;101561.63;5203943;28;20045;-40
2022/09/06 06:09:28;;;;;;;18.27;10.57;;;;;;;21.01;60.16;101548.06;5208819;28;20144;-43
2022/09/06 06:12:01;;;;;;;20.38;9.73;;;;;;;21.27;60.05;101565.25;5200713;28;20451;-42
2022/09/06 06:14:33;;;;;;;15.35;9.98;;;;;;;21.87;59.44;101558.16;5207047;28;20044;-43
2022/09/06 06:17:06;;;;;;;26.63;9.20;;;;;;;22.25;58.92;101538.69;5201262;28;20060;-33
2022/09/06 06:19:39;;;;;;;18.25;9.00;;;;;;;22.19;58.82;101529.59;5201424;28;20235;-44
2022/09/06 06:22:11;;;;;;;12.52;8.90;;;;;;;21.99;59.06;101532.28;5202726;28;20380;-43
2022/09/06 06:24:45;;;;;;;11.23;8.25;;;;;;;21.88;59.66;101546.34;5212736;28;20067;-40
2022/09/06 06:27:18;;;;;;;20.42;9.48;;;;;;;21.90;59.38;101538.91;5211445;28;20072;-40
2022/09/06 06:29:51;;;;;;;10.82;8.13;;;;;;;22.13;58.98;101545.72;5209728;28;20048;-45
2022/09/06 06:32:23;;;;;;;12.93;7.95;;;;;;;22.97;58.33;101537.63;5205339;28;20072;-45
2022/09/06 06:34:56;;;;;;;16.17;12.23;;;;;;;24.60;56.73;101552.13;5201214;28;20679;-45
2022/09/06 06:37:28;;;;;;;11.77;8.07;;;;;;;25.89;54.54;101557.19;5214832;28;20036;-41
2022/09/06 06:40:04;;;;;;;11.38;6.82;;;;;;;26.67;53.06;101535.13;5210226;28;20416;-46
2022/09/06 06:42:36;;;;;;;13.77;7.90;;;;;;;27.42;51.40;101557.69;5201309;28;20036;-41
2022/09/06 06:45:10;;;;;;;16.80;7.38;;;;;;;27.66;50.95;101549.44;5214175;28;20385;-42
2022/09/06 06:47:43;;;;;;;20.45;6.85;;;;;;;27.66;50.52;101541.28;5200351;28;20125;-44
2022/09/06 06:50:15;;;;;;;16.42;6.72;;;;;;;27.63;50.44;101541.78;5219992;28;20064;-42
2022/09/06 06:52:48;;;;;;;;;;;;;;;27.95;49.93;101550.16;5200229;28;20365;-42
2022/09/06 06:55:22;;;;;;;16.35;6.75;;;;;;;28.66;48.45;101550.34;5218588;28;19997;-43
2022/09/06 06:57:54;;;;;;;10.75;6.68;;;;;;;29.17;47.74;101545.47;5216771;28;20588;-46
2022/09/06 07:00:27;;;;;;;11.45;7.30;;;;;;;29.56;46.97;101548.84;5215412;28;20453;-48
2022/09/06 07:02:59;;;;;;;12.90;7.28;;;;;;;30.01;46.63;101549.44;5217279;28;20063;-41
2022/09/06 07:05:32;;;;;;;17.02;7.25;;;;;;;30.77;45.92;101540.84;5215847;28;20059;-43
2022/09/06 07:08:05;;;;;;;;;;;;;;;32.01;44.18;101548.88;5207804;28;20129;-40
2022/09/06 07:10:39;;;;;;;14.63;5.68;;;;;;;33.49;42.22;101539.94;5201249;28;19959;-42
2022/09/06 07:13:11;;;;;;;10.07;6.15;;;;;;;34.34;40.15;101546.78;5199102;28;20133;-44
2022/09/06 07:15:44;;;;;;;12.88;5.78;;;;;;;34.69;38.38;101536.50;5200117;28;20044;-44
2022/09/06 07:18:19;;;;;;;;;;;;;;;34.98;37.80;101541.03;5199840;28;20044;-41
2022/09/06 07:20:51;;;;;;;9.80;5.63;;;;;;;35.49;36.54;101545.72;5197919;28;20338;-43
2022/09/06 07:23:24;;;;;;;6.60;4.30;;;;;;;36.11;36.08;101529.78;5197432;27;20489;-39
2022/09/06 07:25:58;;;;;;;6.43;4.75;;;;;;;37.04;35.04;101542.38;5199826;28;20063;-43
2022/09/06 07:28:31;;;;;;;8.98;4.70;;;;;;;37.80;34.21;101532.19;5197825;28;20480;-46
2022/09/06 07:31:04;;;;;;;5.45;4.43;;;;;;;38.05;33.30;101529.88;5198630;28;20059;-47
2022/09/06 07:33:37;;;;;;;5.78;3.83;;;;;;;38.33;32.01;101552.50;5194372;28;20484;-34
2022/09/06 07:36:10;;;;;;;9.15;4.50;;;;;;;38.42;30.96;101539.56;5196179;28;20378;-48
2022/09/06 07:38:43;;;;;;;6.20;4.20;;;;;;;38.73;30.62;101549.69;5195598;28;20402;-44
2022/09/06 07:41:18;;;;;;;7.10;4.25;;;;;;;38.84;30.46;101522.56;5198384;28;20404;-48
2022/09/06 07:43:54;;;;;;;5.20;3.72;;;;;;;39.23;29.99;101535.38;5197582;28;20052;-46
2022/09/06 07:46:26;;;;;;;6.85;4.00;;;;;;;38.93;28.80;101532.50;5199936;28;20075;-46
2022/09/06 07:48:59;;;;;;;5.65;4.07;;;;;;;38.73;29.12;101539.44;5196331;28;20049;-47
2022/09/06 07:51:32;;;;;;;5.07;3.33;;;;;;;38.74;28.93;101552.09;5198183;28;22028;-47
2022/09/06 07:54:05;;;;;;;6.15;3.42;;;;;;;39.07;28.55;101540.59;5195282;28;20342;-47
2022/09/06 07:56:39;;;;;;;9.02;3.83;;;;;;;39.22;28.35;101533.75;5195012;28;20094;-45
2022/09/06 07:59:12;;;;;;;6.75;3.70;;;;;;;38.72;27.92;101543.34;5196372;28;20124;-49
2022/09/06 08:01:46;;;;;;;8.45;3.90;;;;;;;38.71;27.99;101532.63;5195975;28;20071;-46
2022/09/06 08:04:18;;;;;;;8.32;3.72;;;;;;;39.13;27.84;101535.72;5196800;28;20108;-43
2022/09/06 08:06:52;;;;;;;9.60;3.75;;;;;;;38.66;27.67;101525.31;5195332;28;20454;-47
2022/09/06 08:09:26;;;;;;;5.80;4.13;;;;;;;38.24;28.14;101526.84;5199269;28;22273;-49
2022/09/06 08:12:05;;;;;;;6.82;3.60;;;;;;;37.81;28.58;101531.03;5197225;28;20372;-47
2022/09/06 08:14:37;;;;;;;9.30;4.70;;;;;;;38.01;28.60;101531.66;5193914;28;20382;-45
2022/09/06 08:17:10;;;;;;;7.60;4.57;;;;;;;38.19;28.06;101519.53;5204598;28;20455;-45
2022/09/06 08:19:42;;;;;;;7.40;4.25;;;;;;;37.74;28.27;101513.34;5204604;28;20071;-45
2022/09/06 08:22:15;;;;;;;13.70;4.32;;;;;;;37.66;28.59;101516.88;5201848;28;20037;-47
2022/09/06 08:24:47;;;;;;;8.45;4.43;;;;;;;37.81;28.27;101505.41;5205218;28;20564;-51
2022/09/06 08:27:21;;;;;;;7.75;4.13;;;;;;;38.12;28.20;101499.06;5202139;28;20554;-46
2022/09/06 08:29:54;;;;;;;6.65;4.55;;;;;;;38.47;27.84;101509.06;5204336;28;20360;-46
2022/09/06 08:32:26;;;;;;;4.40;3.63;;;;;;;38.52;27.93;101495.09;5204147;28;20048;-48
2022/09/06 08:34:59;;;;;;;7.88;4.40;;;;;;;38.81;27.69;101507.47;5204114;28;20047;-49
2022/09/06 08:37:31;;;;;;;5.90;3.55;;;;;;;39.06;27.44;101507.81;5202824;28;20453;-47
2022/09/06 08:40:04;;;;;;;7.13;4.10;;;;;;;38.94;27.27;101509.25;5208192;27;20496;-50
2022/09/06 08:42:40;;;;;;;4.38;3.45;;;;;;;38.73;27.39;101511.84;5212173;28;20109;-48
2022/09/06 08:45:18;;;;;;;6.90;4.15;;;;;;;38.43;27.14;101513.59;5208909;28;20044;-49
2022/09/06 08:47:51;;;;;;;5.50;3.70;;;;;;;37.93;27.63;101508.41;5203073;28;20126;-48
2022/09/06 08:50:27;;;;;;;4.32;3.15;;;;;;;37.25;28.02;101509.63;5202201;28;20033;-48
2022/09/06 08:53:03;;;;;;;6.07;4.10;;;;;;;35.62;29.43;101503.75;5199631;28;20500;-47
2022/09/06 08:55:40;;;;;;;7.65;3.83;;;;;;;34.46;30.72;101507.97;5203984;28;20508;-48
2022/09/06 08:58:45;;;;;;;9.07;4.13;;;;;;;34.37;30.76;101505.06;5198442;28;20457;-48
2022/09/06 09:01:24;;;;;;;12.27;4.90;;;;;;;34.85;30.39;101506.91;5198114;28;20052;-51
2022/09/06 09:04:02;;;;;;;11.85;4.28;;;;;;;34.68;30.40;101507.41;5212584;28;21897;-48
2022/09/06 09:06:35;;;;;;;7.57;3.95;;;;;;;34.96;30.01;101521.28;5193706;28;20488;-46
2022/09/06 09:09:10;;;;;;;8.05;4.38;;;;;;;35.10;29.75;101516.72;5200964;28;20044;-48
2022/09/06 09:11:47;;;;;;;10.60;4.00;;;;;;;35.06;29.81;101521.19;5198996;28;20044;-48
2022/09/06 09:14:24;;;;;;;10.05;3.72;;;;;;;34.42;30.68;101502.25;5215995;28;20390;-48
2022/09/06 09:17:15;;;;;;;5.95;3.10;;;;;;;34.27;30.82;101488.75;5198370;28;20501;-45
2022/09/06 09:19:48;;;;;;;6.30;3.70;;;;;;;34.18;30.87;101490.50;5199356;28;20056;-47
2022/09/06 09:22:21;;;;;;;4.95;3.53;;;;;;;34.16;30.90;101488.06;5199961;28;20101;-45
2022/09/06 09:24:54;;;;;;;6.88;3.72;;;;;;;34.03;31.43;101493.44;5201453;28;20044;-48
2022/09/06 09:27:29;;;;;;;8.23;3.42;;;;;;;33.44;32.28;101493.44;5198968;28;20500;-48
2022/09/06 09:30:07;;;;;;;6.60;3.58;;;;;;;32.77;32.97;101481.34;5201387;28;20496;-48
2022/09/06 09:32:43;;;;;;;9.57;3.83;;;;;;;32.39;33.85;101483.72;5198683;28;20032;-47
2022/09/06 09:35:20;;;;;;;15.27;4.55;;;;;;;32.18;33.85;101479.44;5201502;28;20416;-46
2022/09/06 09:38:04;;;;;;;7.65;4.28;;;;;;;31.86;34.86;101483.34;5202845;28;20041;-47
2022/09/06 09:40:40;;;;;;;10.90;4.78;;;;;;;31.89;34.89;101480.06;5199294;28;20036;-35
2022/09/06 09:43:18;;;;;;;13.40;4.88;;;;;;;31.99;34.37;101482.78;5201379;28;20090;-44
2022/09/06 09:46:15;;;;;;;5.57;4.50;;;;;;;31.59;35.38;101479.03;5200398;28;20408;-51
2022/09/06 09:49:07;;;;;;;10.75;4.90;;;;;;;31.04;36.43;101486.13;5197202;28;20036;-46
2022/09/06 09:51:41;;;;;;;7.03;4.97;;;;;;;31.22;36.26;101493.75;5195698;28;20475;-51
2022/09/06 09:54:29;;;;;;;11.60;5.03;;;;;;;31.01;36.61;101492.94;5201671;28;20454;-48
2022/09/06 09:57:06;;;;;;;10.23;4.75;;;;;;;30.84;37.12;101491.53;5193221;28;20072;-44
2022/09/06 09:59:44;;;;;;;10.45;4.78;;;;;;;30.72;37.61;101483.56;5198163;28;20056;-50
2022/09/06 10:02:24;;;;;;;10.18;5.05;;;;;;;30.84;37.77;101488.81;5200656;28;20045;-51
2022/09/06 10:05:02;;;;;;;7.53;4.68;;;;;;;31.16;37.36;101499.50;5202500;28;20045;-50
2022/09/06 10:07:42;;;;;;;8.20;5.35;;;;;;;30.91;37.71;101490.19;5199224;28;20063;-52
2022/09/06 10:10:21;;;;;;;6.40;5.60;;;;;;;30.77;38.07;101487.16;5199106;28;20119;-50
2022/09/06 10:13:09;;;;;;;7.60;4.93;;;;;;;30.47;38.40;101492.50;5198897;28;20040;-48
2022/09/06 10:15:43;;;;;;;9.27;4.57;;;;;;;30.35;38.69;101490.00;5198510;28;20411;-50
2022/09/06 10:18:31;;;;;;;7.45;4.72;;;;;;;30.20;39.07;101493.50;5200340;28;20125;-46
2022/09/06 10:21:06;;;;;;;11.32;5.75;;;;;;;29.99;39.34;101503.41;5207457;28;20053;-45
2022/09/06 10:24:01;;;;;;;5.78;4.65;;;;;;;29.85;39.36;101497.59;5199882;28;20053;-45
2022/09/06 10:26:45;;;;;;;11.50;5.80;;;;;;;30.07;39.08;101504.81;5201640;28;20136;-50
2022/09/06 10:29:32;;;;;;;10.32;5.93;;;;;;;30.25;38.78;101501.66;5202731;28;20599;-51
2022/09/06 10:32:22;;;;;;;10.63;4.85;;;;;;;30.31;38.78;101513.41;5207253;28;20048;-52
2022/09/06 10:35:10;;;;;;;7.60;6.45;;;;;;;30.35;38.63;101513.69;5205742;28;20748;-48
2022/09/06 10:38:02;;;;;;;14.07;6.00;;;;;;;30.22;38.90;101528.63;5201026;28;20490;-48
2022/09/06 10:40:43;;;;;;;12.70;6.85;;;;;;;29.97;39.27;101532.00;5205672;28;20557;-51
2022/09/06 10:43:20;;;;;;;9.23;5.45;;;;;;;29.73;39.64;101526.13;5200196;28;20159;-52
2022/09/06 10:46:01;;;;;;;8.55;6.47;;;;;;;29.52;39.82;101525.13;5202678;28;20492;-50
2022/09/06 10:48:39;;;;;;;8.57;5.55;;;;;;;29.53;40.04;101537.66;5208620;28;20508;-50
2022/09/06 10:51:21;;;;;;;8.05;5.80;;;;;;;29.60;39.69;101530.06;5195144;28;20036;-50
2022/09/06 10:53:57;;;;;;;8.18;5.10;;;;;;;29.80;39.69;101543.88;5205444;28;20059;-44
2022/09/06 10:56:38;;;;;;;8.57;6.68;;;;;;;29.98;39.32;101539.06;5198158;28;20485;-52
2022/09/06 10:59:18;;;;;;;15.13;6.15;;;;;;;29.79;39.64;101542.25;5195207;28;20211;-49
2022/09/06 11:02:03;;;;;;;9.65;5.50;;;;;;;29.50;40.05;101538.97;5200182;28;20500;-44
2022/09/06 11:04:38;;;;;;;8.38;4.78;;;;;;;29.25;40.40;101539.59;5186808;28;20051;-48
2022/09/06 11:07:24;;;;;;;10.93;6.30;;;;;;;29.27;40.35;101540.16;5198284;28;20538;-50
2022/09/06 11:10:01;;;;;;;7.65;5.97;;;;;;;29.39;40.04;101531.81;5203009;28;21455;-46
2022/09/06 11:12:41;;;;;;;8.20;6.38;;;;;;;29.56;40.09;101539.84;5200029;28;20477;-47
2022/09/06 11:15:16;;;;;;;12.25;7.53;;;;;;;29.82;39.86;101546.31;5200265;28;20036;-48
2022/09/06 11:17:55;;;;;;;8.55;7.18;;;;;;;29.95;39.62;101553.22;5204014;28;20548;-49
2022/09/06 11:20:35;;;;;;;10.40;5.78;;;;;;;29.87;39.67;101558.09;5204026;28;20080;-47
2022/09/06 11:23:47;;;;;;;7.65;6.32;;;;;;;29.64;40.02;101558.47;5200948;28;20059;-47
2022/09/06 11:26:40;;;;;;;13.38;7.00;;;;;;;29.42;40.38;101551.19;5189637;28;20460;-54
2022/09/06 11:29:21;;;;;;;8.93;6.72;;;;;;;29.44;40.33;101556.34;5200314;28;20449;-47
2022/09/06 11:31:56;;;;;;;9.00;6.32;;;;;;;29.55;40.27;101535.50;5204491;28;20041;-49
2022/09/06 11:34:31;;;;;;;9.00;6.32;;;;;;;29.72;40.07;101536.19;5205087;28;20443;-48
2022/09/06 11:37:06;;;;;;;13.85;5.18;;;;;;;29.81;39.84;101545.50;5206558;28;20045;-47
2022/09/06 11:39:42;;;;;;;10.48;3.90;;;;;;;29.65;40.39;101549.22;5204297;28;20405;-49
2022/09/06 11:43:08;;;;;;;12.13;4.75;;;;;;;29.64;40.20;101551.13;5202463;28;20511;-50
2022/09/06 11:45:45;;;;;;;7.53;5.22;;;;;;;29.48;40.29;101543.84;5190495;28;20053;-45
2022/09/06 11:48:49;;;;;;;9.50;4.65;;;;;;;29.38;40.61;101551.94;5201783;28;20488;-50
2022/09/06 11:51:38;;;;;;;11.85;5.03;;;;;;;29.42;40.38;101553.91;5201113;28;20052;-48
2022/09/06 11:54:26;;;;;;;12.35;4.53;;;;;;;29.32;40.57;101553.78;5193982;28;20169;-45
2022/09/06 11:57:03;;;;;;;5.18;4.65;;;;;;;29.64;40.17;101555.75;5199715;28;20037;-49
2022/09/06 11:59:43;;;;;;;8.30;5.40;;;;;;;30.02;39.64;101548.38;5204407;28;20452;-51
2022/09/06 12:02:46;;;;;;;7.47;4.60;;;;;;;30.14;39.70;101546.28;5199090;28;20595;-51
2022/09/06 12:05:26;;;;;;;6.07;3.80;;;;;;;30.14;39.55;101537.28;5116336;28;20361;-48
2022/09/06 12:08:34;;;;;;;5.07;4.07;;;;;;;30.05;39.83;101548.66;5188905;28;20426;-49